<?xml version="1.0" encoding="UTF-8" standalone="no" ?>
<gpx xmlns="http://www.topografix.com/GPX/1/1" xmlns:xsi="http://www.w3.org/2001/XMLSchema-instance" xsi:schemaLocation="http://www.topografix.com/GPX/1/1 http://www.topografix.com/GPX/1/1/gpx.xsd" version="1.1" creator="VisuGPX - https://www.visugpx.com">
  <metadata>
    <name>14045220-BOIS DE ROCHEFORT 20</name>
  </metadata>
  <trk>
    <name><![CDATA[14045220-BOIS DE ROCHEFORT 20]]></name>
    <trkseg>
      <trkpt lat="48.59156" lon="1.96613">
        <ele>121</ele>
        <time>2021-12-19T19:16:50Z</time>
      </trkpt>
      <trkpt lat="48.5915" lon="1.96707">
        <ele>122</ele>
        <time>2021-12-19T19:17:40Z</time>
      </trkpt>
      <trkpt lat="48.59092" lon="1.96907">
        <ele>120</ele>
        <time>2021-12-19T19:19:36Z</time>
      </trkpt>
      <trkpt lat="48.5904" lon="1.97065">
        <ele>120</ele>
        <time>2021-12-19T19:21:09Z</time>
      </trkpt>
      <trkpt lat="48.58998" lon="1.97144">
        <ele>119</ele>
        <time>2021-12-19T19:22:03Z</time>
      </trkpt>
      <trkpt lat="48.58998" lon="1.97226">
        <ele>120</ele>
        <time>2021-12-19T19:22:46Z</time>
      </trkpt>
      <trkpt lat="48.59096" lon="1.97329">
        <ele>125</ele>
        <time>2021-12-19T19:24:22Z</time>
      </trkpt>
      <trkpt lat="48.59403" lon="1.96692">
        <ele>143</ele>
        <time>2021-12-19T19:31:19Z</time>
      </trkpt>
      <trkpt lat="48.59419" lon="1.96752">
        <ele>146</ele>
        <time>2021-12-19T19:31:53Z</time>
      </trkpt>
      <trkpt lat="48.59441" lon="1.96831">
        <ele>152</ele>
        <time>2021-12-19T19:32:39Z</time>
      </trkpt>
      <trkpt lat="48.59405" lon="1.96907">
        <ele>155</ele>
        <time>2021-12-19T19:33:28Z</time>
      </trkpt>
      <trkpt lat="48.59429" lon="1.96989">
        <ele>157</ele>
        <time>2021-12-19T19:34:16Z</time>
      </trkpt>
      <trkpt lat="48.59445" lon="1.97177">
        <ele>155</ele>
        <time>2021-12-19T19:35:56Z</time>
      </trkpt>
      <trkpt lat="48.59427" lon="1.97259">
        <ele>152</ele>
        <time>2021-12-19T19:36:42Z</time>
      </trkpt>
      <trkpt lat="48.59473" lon="1.97308">
        <ele>146</ele>
        <time>2021-12-19T19:37:27Z</time>
      </trkpt>
      <trkpt lat="48.59475" lon="1.97423">
        <ele>140</ele>
        <time>2021-12-19T19:38:28Z</time>
      </trkpt>
      <trkpt lat="48.59477" lon="1.97529">
        <ele>142</ele>
        <time>2021-12-19T19:39:24Z</time>
      </trkpt>
      <trkpt lat="48.59427" lon="1.97629">
        <ele>151</ele>
        <time>2021-12-19T19:40:30Z</time>
      </trkpt>
      <trkpt lat="48.59441" lon="1.97748">
        <ele>157</ele>
        <time>2021-12-19T19:41:34Z</time>
      </trkpt>
      <trkpt lat="48.59475" lon="1.97836">
        <ele>157</ele>
        <time>2021-12-19T19:42:28Z</time>
      </trkpt>
      <trkpt lat="48.59519" lon="1.98">
        <ele>162</ele>
        <time>2021-12-19T19:44:02Z</time>
      </trkpt>
      <trkpt lat="48.59732" lon="1.98227">
        <ele>147</ele>
        <time>2021-12-19T19:47:31Z</time>
      </trkpt>
      <trkpt lat="48.59843" lon="1.98048">
        <ele>144</ele>
        <time>2021-12-19T19:49:41Z</time>
      </trkpt>
      <trkpt lat="48.59965" lon="1.97766">
        <ele>122</ele>
        <time>2021-12-19T19:52:39Z</time>
      </trkpt>
      <trkpt lat="48.60541" lon="1.98352">
        <ele>107</ele>
        <time>2021-12-19T20:01:55Z</time>
      </trkpt>
      <trkpt lat="48.60742" lon="1.98273">
        <ele>107</ele>
        <time>2021-12-19T20:04:41Z</time>
      </trkpt>
      <trkpt lat="48.608" lon="1.97975">
        <ele>108</ele>
        <time>2021-12-19T20:07:26Z</time>
      </trkpt>
      <trkpt lat="48.6015" lon="1.97329">
        <ele>146</ele>
        <time>2021-12-19T20:17:49Z</time>
      </trkpt>
      <trkpt lat="48.59977" lon="1.97714">
        <ele>120</ele>
        <time>2021-12-19T20:21:55Z</time>
      </trkpt>
      <trkpt lat="48.59744" lon="1.97253">
        <ele>133</ele>
        <time>2021-12-19T20:27:02Z</time>
      </trkpt>
      <trkpt lat="48.59661" lon="1.97043">
        <ele>138</ele>
        <time>2021-12-19T20:29:12Z</time>
      </trkpt>
      <trkpt lat="48.59722" lon="1.96921">
        <ele>144</ele>
        <time>2021-12-19T20:30:33Z</time>
      </trkpt>
      <trkpt lat="48.59968" lon="1.97171">
        <ele>139</ele>
        <time>2021-12-19T20:34:30Z</time>
      </trkpt>
      <trkpt lat="48.6011" lon="1.97064">
        <ele>141</ele>
        <time>2021-12-19T20:36:37Z</time>
      </trkpt>
      <trkpt lat="48.60255" lon="1.9711">
        <ele>127</ele>
        <time>2021-12-19T20:38:36Z</time>
      </trkpt>
      <trkpt lat="48.60306" lon="1.97008">
        <ele>127</ele>
        <time>2021-12-19T20:39:43Z</time>
      </trkpt>
      <trkpt lat="48.60515" lon="1.97294">
        <ele>119</ele>
        <time>2021-12-19T20:43:29Z</time>
      </trkpt>
      <trkpt lat="48.6068" lon="1.97482">
        <ele>112</ele>
        <time>2021-12-19T20:46:15Z</time>
      </trkpt>
      <trkpt lat="48.60788" lon="1.97442">
        <ele>109</ele>
        <time>2021-12-19T20:47:44Z</time>
      </trkpt>
      <trkpt lat="48.60697" lon="1.97243">
        <ele>112</ele>
        <time>2021-12-19T20:49:52Z</time>
      </trkpt>
      <trkpt lat="48.60697" lon="1.97105">
        <ele>117</ele>
        <time>2021-12-19T20:51:05Z</time>
      </trkpt>
      <trkpt lat="48.60404" lon="1.96783">
        <ele>146</ele>
        <time>2021-12-19T20:55:55Z</time>
      </trkpt>
      <trkpt lat="48.60493" lon="1.96561">
        <ele>147</ele>
        <time>2021-12-19T20:58:12Z</time>
      </trkpt>
      <trkpt lat="48.60701" lon="1.96133">
        <ele>121</ele>
        <time>2021-12-19T21:02:53Z</time>
      </trkpt>
      <trkpt lat="48.60709" lon="1.96033">
        <ele>118</ele>
        <time>2021-12-19T21:03:47Z</time>
      </trkpt>
      <trkpt lat="48.60363" lon="1.9562">
        <ele>118</ele>
        <time>2021-12-19T21:09:40Z</time>
      </trkpt>
      <trkpt lat="48.60086" lon="1.95288">
        <ele>120</ele>
        <time>2021-12-19T21:14:23Z</time>
      </trkpt>
      <trkpt lat="48.59874" lon="1.95676">
        <ele>127</ele>
        <time>2021-12-19T21:18:49Z</time>
      </trkpt>
      <trkpt lat="48.59995" lon="1.95696">
        <ele>127</ele>
        <time>2021-12-19T21:20:27Z</time>
      </trkpt>
      <trkpt lat="48.60113" lon="1.9589">
        <ele>124</ele>
        <time>2021-12-19T21:22:46Z</time>
      </trkpt>
      <trkpt lat="48.60147" lon="1.96069">
        <ele>135</ele>
        <time>2021-12-19T21:24:25Z</time>
      </trkpt>
      <trkpt lat="48.59891" lon="1.96589">
        <ele>156</ele>
        <time>2021-12-19T21:30:08Z</time>
      </trkpt>
      <trkpt lat="48.596" lon="1.96309">
        <ele>155</ele>
        <time>2021-12-19T21:34:44Z</time>
      </trkpt>
      <trkpt lat="48.59442" lon="1.96625">
        <ele>145</ele>
        <time>2021-12-19T21:38:14Z</time>
      </trkpt>
      <trkpt lat="48.59317" lon="1.96477">
        <ele>132</ele>
        <time>2021-12-19T21:40:21Z</time>
      </trkpt>
      <trkpt lat="48.59219" lon="1.96569">
        <ele>123</ele>
        <time>2021-12-19T21:41:53Z</time>
      </trkpt>
    </trkseg>
  </trk>
</gpx>